Observations for CRANFIELD, United Kingdom (EGTC)

EGTC 171620Z 21016KT 9999 BKN020 16/13 Q1015
EGTC 171550Z 21013KT 9999 BKN021 17/13 Q1014
EGTC 171520Z 20013KT 9999 BKN025 17/12 Q1015
EGTC 171450Z 22014KT 9999 BKN026 17/12 Q1015
EGTC 171420Z 22014KT 9999 BKN028 18/12 Q1015
EGTC 171350Z 23012KT 200V260 9999 BKN028 17/11 Q1015
EGTC 171320Z 23012KT 9999 BKN026 17/12 Q1015
EGTC 171250Z 25009KT 9999 BKN026 17/12 Q1015
EGTC 171220Z 23010G20KT 9999 BKN026 16/11 Q1015 
EGTC 171150Z 23012KT 9999 BKN027 17/11 Q1015
EGTC 171120Z 24010KT 210V270 9999 BKN027 17/12 Q1015
EGTC 171050Z 23011KT 200V260 9999 BKN025 17/11 Q1015
EGTC 171020Z 23012KT 200V260 9999 BKN023 16/12 Q1015
EGTC 170950Z 23012KT 200V260 9999 BKN017 17/13 Q1015
EGTC 170920Z 23010KT 9999 BKN012 15/13 Q1015
EGTC 170850Z 23009KT 9999 BKN013 15/13 Q1015
EGTC 170820Z 23008KT 210V270 9999 BKN010 14/13 Q1015
EGTC 170750Z 22007KT 9999 SCT011 14/13 Q1015
EGTC 170720Z 21009KT 8000 -RA FEW018 SCT030 13/12 Q1015